createdAt,value
2018-12-30T00:00:11.254Z,21.05
2018-12-30T00:02:37.249Z,21.03
2018-12-30T00:05:03.290Z,21.03
2018-12-30T00:07:29.263Z,21.04
2018-12-30T00:09:55.256Z,21.04
2018-12-30T00:12:21.283Z,21.03
2018-12-30T00:14:47.278Z,21.03
2018-12-30T00:17:13.290Z,21.02
2018-12-30T00:19:42.603Z,21.01
2018-12-30T00:22:05.263Z,21.03
2018-12-30T00:24:31.349Z,21.03
2018-12-30T00:26:57.310Z,21.02
2018-12-30T00:29:23.407Z,21.02
2018-12-30T00:31:49.319Z,21.03
2018-12-30T00:34:15.291Z,21.01
2018-12-30T00:36:41.344Z,21.01
2018-12-30T00:39:07.323Z,21.01
2018-12-30T00:41:33.295Z,21.02
2018-12-30T00:43:59.302Z,21.02
2018-12-30T00:46:25.282Z,21.00
2018-12-30T00:48:51.246Z,21.02
2018-12-30T00:51:17.465Z,21.00
2018-12-30T00:53:43.245Z,21.01
2018-12-30T00:56:09.268Z,21.00
2018-12-30T00:58:35.258Z,21.00
2018-12-30T01:01:01.223Z,21.00
2018-12-30T01:03:27.237Z,20.99
2018-12-30T01:05:53.228Z,20.99
2018-12-30T01:08:19.253Z,20.99
2018-12-30T01:10:45.302Z,20.98
2018-12-30T01:13:11.297Z,21.00
2018-12-30T01:15:37.325Z,21.00
2018-12-30T01:18:03.308Z,21.00
2018-12-30T01:20:29.314Z,21.00
2018-12-30T01:22:55.318Z,21.00
2018-12-30T01:25:21.297Z,20.99
2018-12-30T01:27:47.352Z,20.98
2018-12-30T01:30:13.282Z,20.97
2018-12-30T01:32:39.326Z,21.00
2018-12-30T01:35:05.306Z,20.99
2018-12-30T01:37:31.305Z,20.98
2018-12-30T01:39:57.311Z,20.98
2018-12-30T01:42:23.297Z,20.99
2018-12-30T01:44:49.320Z,20.98
2018-12-30T01:47:15.453Z,20.98
2018-12-30T01:49:41.414Z,20.99
2018-12-30T01:52:07.406Z,20.99
2018-12-30T01:54:33.430Z,20.99
2018-12-30T01:56:59.422Z,20.98
2018-12-30T01:59:25.443Z,20.97
2018-12-30T02:01:51.422Z,20.96
2018-12-30T02:04:17.419Z,20.96
2018-12-30T02:06:43.468Z,20.96
2018-12-30T02:09:09.447Z,20.98
2018-12-30T02:11:35.444Z,20.98
2018-12-30T02:14:01.493Z,20.96
2018-12-30T02:16:27.488Z,20.95
2018-12-30T02:18:53.480Z,20.99
2018-12-30T02:21:19.493Z,20.97
2018-12-30T02:23:45.542Z,20.96
2018-12-30T02:26:11.553Z,20.97
2018-12-30T02:28:37.548Z,20.99
2018-12-30T02:31:03.667Z,20.96
2018-12-30T02:33:29.568Z,20.96
2018-12-30T02:35:55.537Z,20.96
2018-12-30T02:38:21.561Z,20.95
2018-12-30T02:40:47.568Z,20.95
2018-12-30T02:43:13.564Z,20.95
2018-12-30T02:45:39.543Z,20.96
2018-12-30T02:48:05.560Z,20.95
2018-12-30T02:50:31.536Z,20.96
2018-12-30T02:52:57.560Z,20.95
2018-12-30T02:55:23.568Z,20.96
2018-12-30T02:57:49.565Z,20.94
2018-12-30T03:00:15.713Z,20.95
2018-12-30T03:02:41.733Z,20.94
2018-12-30T03:05:07.707Z,20.94
2018-12-30T03:07:33.757Z,20.93
2018-12-30T03:09:59.810Z,20.95
2018-12-30T03:12:25.764Z,20.93
2018-12-30T03:14:51.750Z,20.93
2018-12-30T03:17:17.776Z,20.94
2018-12-30T03:19:43.758Z,20.94
2018-12-30T03:22:09.790Z,20.95
2018-12-30T03:24:35.817Z,20.94
2018-12-30T03:27:01.784Z,20.94
2018-12-30T03:29:27.812Z,20.94
2018-12-30T03:31:53.806Z,20.95
2018-12-30T03:34:19.773Z,20.95
2018-12-30T03:36:45.769Z,20.94
2018-12-30T03:39:11.792Z,20.95
2018-12-30T03:41:37.777Z,20.94
2018-12-30T03:44:03.736Z,20.94
2018-12-30T03:46:29.791Z,20.93
2018-12-30T03:48:55.763Z,20.94
2018-12-30T03:51:21.766Z,20.94
2018-12-30T03:53:47.746Z,20.93
2018-12-30T03:56:13.752Z,20.94
2018-12-30T03:58:39.781Z,20.92
2018-12-30T04:01:05.779Z,20.93
2018-12-30T04:03:31.796Z,20.94
2018-12-30T04:05:57.826Z,20.94
2018-12-30T04:08:23.801Z,20.95
2018-12-30T04:10:49.802Z,20.95
2018-12-30T04:13:15.843Z,20.94
2018-12-30T04:15:41.843Z,20.94
2018-12-30T04:18:07.831Z,20.93
2018-12-30T04:20:33.873Z,20.92
2018-12-30T04:22:59.851Z,20.92
2018-12-30T04:25:25.865Z,20.93
2018-12-30T04:27:51.865Z,20.93
2018-12-30T04:30:17.896Z,20.91
2018-12-30T04:32:43.887Z,20.91
2018-12-30T04:35:09.878Z,20.92
2018-12-30T04:37:35.892Z,20.91
2018-12-30T04:40:01.902Z,20.92
2018-12-30T04:42:27.882Z,20.92
2018-12-30T04:44:53.912Z,20.93
2018-12-30T04:47:19.880Z,20.92
2018-12-30T04:49:45.876Z,20.92
2018-12-30T04:52:11.892Z,20.93
2018-12-30T04:54:37.868Z,20.92
2018-12-30T04:57:03.834Z,20.91
2018-12-30T04:59:29.887Z,20.91
2018-12-30T05:01:55.845Z,20.91
2018-12-30T05:04:21.839Z,20.91
2018-12-30T05:06:47.869Z,20.93
2018-12-30T05:09:13.835Z,20.92
2018-12-30T05:11:39.835Z,20.90
2018-12-30T05:14:05.862Z,20.94
2018-12-30T05:16:31.838Z,20.91
2018-12-30T05:18:57.808Z,20.91
2018-12-30T05:21:23.850Z,20.91
2018-12-30T05:23:49.848Z,20.90
2018-12-30T05:26:15.930Z,20.92
2018-12-30T05:28:41.936Z,20.92
2018-12-30T05:31:07.916Z,20.91
2018-12-30T05:33:33.896Z,20.92
2018-12-30T05:35:59.911Z,20.92
2018-12-30T05:38:25.889Z,20.93
2018-12-30T05:40:51.869Z,20.94
2018-12-30T05:43:17.895Z,20.92
2018-12-30T05:45:43.893Z,20.90
2018-12-30T05:48:09.988Z,20.93
2018-12-30T05:50:35.989Z,20.92
2018-12-30T05:53:01.951Z,20.91
2018-12-30T05:55:27.937Z,20.91
2018-12-30T05:57:54.007Z,20.91
2018-12-30T06:00:19.969Z,20.92
2018-12-30T06:02:46.031Z,20.91
2018-12-30T06:05:12.054Z,20.92
2018-12-30T06:07:38.051Z,20.91
2018-12-30T06:10:04.090Z,20.92
2018-12-30T06:12:30.087Z,20.92
2018-12-30T06:14:56.055Z,20.91
2018-12-30T06:17:22.079Z,20.90
2018-12-30T06:19:48.057Z,20.90
2018-12-30T06:22:14.036Z,20.91
2018-12-30T06:24:40.062Z,20.91
2018-12-30T06:27:06.047Z,20.90
2018-12-30T06:29:32.041Z,20.91
2018-12-30T06:31:58.063Z,20.89
2018-12-30T06:34:24.036Z,20.91
2018-12-30T06:36:50.032Z,20.92
2018-12-30T06:39:16.167Z,20.90
2018-12-30T06:41:42.156Z,20.89
2018-12-30T06:44:08.128Z,20.89
2018-12-30T06:46:34.168Z,20.90
2018-12-30T06:49:00.187Z,20.90
2018-12-30T06:51:26.191Z,20.89
2018-12-30T06:53:52.175Z,20.92
2018-12-30T06:56:18.199Z,20.92
2018-12-30T06:58:44.164Z,20.91
2018-12-30T07:01:10.194Z,20.93
2018-12-30T07:03:36.163Z,20.92
2018-12-30T07:06:02.153Z,20.92
2018-12-30T07:08:28.173Z,20.93
2018-12-30T07:10:54.180Z,20.92
2018-12-30T07:13:20.170Z,20.93
2018-12-30T07:15:46.232Z,20.91
2018-12-30T07:18:12.204Z,20.95
2018-12-30T07:20:38.185Z,20.94
2018-12-30T07:23:06.018Z,20.96
2018-12-30T07:25:30.159Z,20.94
2018-12-30T07:27:56.163Z,20.95
2018-12-30T07:30:22.127Z,20.93
2018-12-30T07:32:48.106Z,20.93
2018-12-30T07:35:14.242Z,20.94
2018-12-30T07:37:40.221Z,20.94
2018-12-30T07:40:06.193Z,20.93
2018-12-30T07:42:32.226Z,20.94
2018-12-30T07:44:58.206Z,20.95
2018-12-30T07:47:24.197Z,20.93
2018-12-30T07:49:50.225Z,20.94
2018-12-30T07:52:16.330Z,20.93
2018-12-30T07:54:42.353Z,20.94
2018-12-30T07:57:08.377Z,20.92
2018-12-30T07:59:34.445Z,20.93
2018-12-30T08:02:00.506Z,20.93
2018-12-30T08:04:26.567Z,20.91
2018-12-30T08:06:52.572Z,20.91
2018-12-30T08:09:18.568Z,20.90
2018-12-30T08:11:44.542Z,20.89
2018-12-30T08:14:10.573Z,20.89
2018-12-30T08:16:36.634Z,20.89
2018-12-30T08:19:02.622Z,20.88
2018-12-30T08:21:28.633Z,20.88
2018-12-30T08:23:54.634Z,20.88
2018-12-30T08:26:20.605Z,20.88
2018-12-30T08:28:46.645Z,20.89
2018-12-30T08:31:12.630Z,20.90
2018-12-30T08:33:38.616Z,20.89
2018-12-30T08:36:04.641Z,20.90
2018-12-30T08:38:30.635Z,20.88
2018-12-30T08:40:56.627Z,20.88
2018-12-30T08:43:22.674Z,20.89
2018-12-30T08:45:48.639Z,20.89
2018-12-30T08:48:14.644Z,20.93
2018-12-30T08:50:40.670Z,20.90
2018-12-30T08:53:06.712Z,20.89
2018-12-30T08:55:32.706Z,20.94
2018-12-30T08:57:58.694Z,20.90
2018-12-30T09:00:24.716Z,20.92
2018-12-30T09:02:50.754Z,20.92
2018-12-30T09:05:16.745Z,20.94
2018-12-30T09:07:42.752Z,20.93
2018-12-30T09:10:08.844Z,20.95
2018-12-30T09:12:34.840Z,20.93
2018-12-30T09:15:00.819Z,20.94
2018-12-30T09:17:26.804Z,20.93
2018-12-30T09:19:52.813Z,20.94
2018-12-30T09:22:18.795Z,20.95
2018-12-30T09:24:44.793Z,20.96
2018-12-30T09:27:10.814Z,20.95
2018-12-30T09:29:36.789Z,20.95
2018-12-30T09:32:02.753Z,20.94
2018-12-30T09:34:28.762Z,20.92
2018-12-30T09:36:54.740Z,20.92
2018-12-30T09:39:20.707Z,20.92
2018-12-30T09:41:46.735Z,20.95
2018-12-30T09:44:12.708Z,20.92
2018-12-30T09:46:38.669Z,20.92
2018-12-30T09:49:04.701Z,20.92
2018-12-30T09:51:30.707Z,20.90
2018-12-30T09:53:56.771Z,20.90
2018-12-30T09:56:22.800Z,20.90
2018-12-30T09:58:48.783Z,20.89
2018-12-30T10:01:14.830Z,20.89
2018-12-30T10:03:40.852Z,20.91
2018-12-30T10:06:06.831Z,20.90
2018-12-30T10:08:32.865Z,20.89
2018-12-30T10:10:58.854Z,20.87
2018-12-30T10:13:24.825Z,20.89
2018-12-30T10:15:50.930Z,20.89
2018-12-30T10:18:16.829Z,20.88
2018-12-30T10:20:42.827Z,20.87
2018-12-30T10:23:10.188Z,20.88
2018-12-30T10:25:36.199Z,20.87
2018-12-30T10:28:02.162Z,20.88
2018-12-30T10:30:28.194Z,20.88
2018-12-30T10:32:54.175Z,20.87
2018-12-30T10:35:20.613Z,20.88
2018-12-30T10:37:46.754Z,20.89
2018-12-30T10:40:12.766Z,20.89
2018-12-30T10:42:38.743Z,20.88
2018-12-30T10:45:04.805Z,20.89
2018-12-30T10:47:30.779Z,20.91
2018-12-30T10:49:56.847Z,20.88
2018-12-30T10:52:22.873Z,20.88
2018-12-30T10:54:48.864Z,20.88
2018-12-30T10:57:15.009Z,20.89
2018-12-30T10:59:41.017Z,20.88
2018-12-30T11:02:07.000Z,20.87
2018-12-30T11:04:33.060Z,20.87
2018-12-30T11:06:59.035Z,20.86
2018-12-30T11:09:25.008Z,20.86
2018-12-30T11:11:51.020Z,20.87
2018-12-30T11:14:17.061Z,20.87
2018-12-30T11:16:43.074Z,20.86
2018-12-30T11:19:09.233Z,20.86
2018-12-30T11:21:35.204Z,20.86
2018-12-30T11:24:08.347Z,20.85
2018-12-30T11:26:27.224Z,20.84
2018-12-30T11:28:53.284Z,20.84
2018-12-30T11:31:19.550Z,20.83
2018-12-30T11:33:45.711Z,20.83
2018-12-30T11:36:11.705Z,20.83
2018-12-30T11:38:37.700Z,20.82
2018-12-30T11:41:03.716Z,20.82
2018-12-30T11:43:29.677Z,20.82
2018-12-30T11:45:55.665Z,20.83
2018-12-30T11:48:23.552Z,20.83
2018-12-30T11:50:49.534Z,20.83
2018-12-30T11:53:15.546Z,20.84
2018-12-30T11:55:41.715Z,20.84
2018-12-30T11:58:07.764Z,20.84
2018-12-30T12:00:33.777Z,20.88
2018-12-30T12:02:59.802Z,20.88
2018-12-30T12:05:25.797Z,20.90
2018-12-30T12:07:51.788Z,20.89
2018-12-30T12:10:17.829Z,20.89
2018-12-30T12:12:48.868Z,20.87
2018-12-30T12:15:09.863Z,20.87
2018-12-30T12:17:35.868Z,20.86
2018-12-30T12:20:01.871Z,20.85
2018-12-30T12:22:27.849Z,20.86
2018-12-30T12:24:53.918Z,20.85
2018-12-30T12:27:19.886Z,20.86
2018-12-30T12:29:45.897Z,20.86
2018-12-30T12:32:11.974Z,20.85
2018-12-30T12:34:37.982Z,20.84
2018-12-30T12:37:03.970Z,20.83
2018-12-30T12:39:29.990Z,20.83
2018-12-30T12:41:55.962Z,20.84
2018-12-30T12:44:21.970Z,20.84
2018-12-30T12:46:47.987Z,20.83
2018-12-30T12:49:13.985Z,20.82
2018-12-30T12:51:40.023Z,20.82
2018-12-30T12:54:06.068Z,20.82
2018-12-30T12:56:32.049Z,20.82
2018-12-30T12:58:58.039Z,20.81
2018-12-30T13:01:24.063Z,20.82
2018-12-30T13:03:50.055Z,20.81
2018-12-30T13:06:16.072Z,20.83
2018-12-30T13:08:42.096Z,20.82
2018-12-30T13:11:08.089Z,20.82
2018-12-30T13:13:34.144Z,20.81
2018-12-30T13:16:03.476Z,20.80
2018-12-30T13:18:26.155Z,20.80
2018-12-30T13:20:52.141Z,20.81
2018-12-30T13:23:18.154Z,20.81
2018-12-30T13:25:44.129Z,20.80
2018-12-30T13:28:10.115Z,20.79
2018-12-30T13:30:36.148Z,20.79
2018-12-30T13:33:02.156Z,20.80
2018-12-30T13:35:28.160Z,20.79
2018-12-30T13:37:54.212Z,20.79
2018-12-30T13:40:20.283Z,20.80
2018-12-30T13:42:46.171Z,20.79
2018-12-30T13:45:12.207Z,20.79
2018-12-30T13:47:38.214Z,20.79
2018-12-30T13:50:04.217Z,20.78
2018-12-30T13:52:30.218Z,20.77
2018-12-30T13:54:56.207Z,20.78
2018-12-30T13:57:22.202Z,20.77
2018-12-30T13:59:48.224Z,20.76
2018-12-30T14:02:14.188Z,20.77
2018-12-30T14:04:40.164Z,20.77
2018-12-30T14:07:06.179Z,20.76
2018-12-30T14:09:32.170Z,20.77
2018-12-30T14:11:58.154Z,20.78
2018-12-30T14:14:24.163Z,20.79
2018-12-30T14:16:50.125Z,20.79
2018-12-30T14:19:16.100Z,20.81
2018-12-30T14:21:42.145Z,20.81
2018-12-30T14:24:08.100Z,20.81
2018-12-30T14:26:34.069Z,20.80
2018-12-30T14:29:00.444Z,20.80
2018-12-30T14:31:26.427Z,20.80
2018-12-30T14:33:52.392Z,20.80
2018-12-30T14:36:18.448Z,20.80
2018-12-30T14:38:44.494Z,20.80
2018-12-30T14:41:10.495Z,20.79
2018-12-30T14:43:36.552Z,20.80
2018-12-30T14:46:02.527Z,20.80
2018-12-30T14:48:28.515Z,20.80
2018-12-30T14:50:54.522Z,20.80
2018-12-30T14:53:20.497Z,20.80
2018-12-30T14:55:46.460Z,20.80
2018-12-30T14:58:12.477Z,20.80
2018-12-30T15:00:38.443Z,20.79
2018-12-30T15:03:04.413Z,20.79
2018-12-30T15:05:30.420Z,20.80
2018-12-30T15:07:56.407Z,20.79
2018-12-30T15:10:22.408Z,20.80
2018-12-30T15:12:48.442Z,20.83
2018-12-30T15:15:14.412Z,20.83
2018-12-30T15:17:40.416Z,20.83
2018-12-30T15:20:06.507Z,20.85
2018-12-30T15:22:32.479Z,20.85
2018-12-30T15:24:58.473Z,20.85
2018-12-30T15:27:24.504Z,20.87
2018-12-30T15:29:50.505Z,20.90
2018-12-30T15:32:16.965Z,20.90
2018-12-30T15:34:42.976Z,20.90
2018-12-30T15:37:08.974Z,20.91
2018-12-30T15:39:35.025Z,20.90
2018-12-30T15:42:00.994Z,20.90
2018-12-30T15:44:26.988Z,20.91
2018-12-30T15:46:53.010Z,20.90
2018-12-30T15:49:19.014Z,20.89
2018-12-30T15:51:45.032Z,20.89
2018-12-30T15:54:11.023Z,20.90
2018-12-30T15:56:37.321Z,20.91
2018-12-30T15:59:03.069Z,20.92
2018-12-30T16:01:29.262Z,20.93
2018-12-30T16:03:55.255Z,20.93
2018-12-30T16:06:21.306Z,20.93
2018-12-30T16:08:47.319Z,20.94
2018-12-30T16:11:13.349Z,20.97
2018-12-30T16:13:39.428Z,20.96
2018-12-30T16:16:05.420Z,20.95
2018-12-30T16:18:31.729Z,20.95
2018-12-30T16:20:57.768Z,20.94
2018-12-30T16:23:23.766Z,20.94
2018-12-30T16:25:49.736Z,20.95
2018-12-30T16:28:15.957Z,20.95
2018-12-30T16:30:41.972Z,20.97
2018-12-30T16:33:07.968Z,20.98
2018-12-30T16:35:34.154Z,21.01
2018-12-30T16:38:00.200Z,21.03
2018-12-30T16:40:26.192Z,21.05
2018-12-30T16:42:52.589Z,21.04
2018-12-30T16:45:18.586Z,21.04
2018-12-30T16:47:44.582Z,21.07
2018-12-30T16:50:10.609Z,21.08
2018-12-30T16:52:37.051Z,21.10
2018-12-30T16:55:03.030Z,21.07
2018-12-30T16:57:29.031Z,21.09
2018-12-30T16:59:55.046Z,21.07
2018-12-30T17:02:21.161Z,21.06
2018-12-30T17:04:47.134Z,21.06
2018-12-30T17:07:13.505Z,21.07
2018-12-30T17:09:39.409Z,21.07
2018-12-30T17:12:05.396Z,21.08
2018-12-30T17:14:31.485Z,21.08
2018-12-30T17:16:57.458Z,21.05
2018-12-30T17:19:23.445Z,21.10
2018-12-30T17:21:49.472Z,21.08
2018-12-30T17:24:15.452Z,21.12
2018-12-30T17:26:41.479Z,21.11
2018-12-30T17:29:07.510Z,21.09
2018-12-30T17:31:33.562Z,21.10
2018-12-30T17:33:59.525Z,21.11
2018-12-30T17:36:25.538Z,21.12
2018-12-30T17:38:51.707Z,21.09
2018-12-30T17:41:17.706Z,21.10
2018-12-30T17:43:44.465Z,21.09
2018-12-30T17:46:18.002Z,21.09
2018-12-30T17:48:36.780Z,21.10
2018-12-30T17:51:03.080Z,21.13
2018-12-30T17:53:29.605Z,21.09
2018-12-30T17:55:55.666Z,21.11
2018-12-30T17:58:21.660Z,21.09
2018-12-30T18:00:47.775Z,21.08
2018-12-30T18:03:13.763Z,21.09
2018-12-30T18:05:39.752Z,21.11
2018-12-30T18:08:05.790Z,21.12
2018-12-30T18:10:31.756Z,21.10
2018-12-30T18:12:57.738Z,21.08
2018-12-30T18:15:24.115Z,21.09
2018-12-30T18:17:50.123Z,21.07
2018-12-30T18:20:16.078Z,21.06
2018-12-30T18:22:42.565Z,21.03
2018-12-30T18:25:08.800Z,21.02
2018-12-30T18:27:34.820Z,21.01
2018-12-30T18:30:00.885Z,21.01
2018-12-30T18:32:27.218Z,21.01
2018-12-30T18:34:53.457Z,21.02
2018-12-30T18:37:19.457Z,21.04
2018-12-30T18:39:46.358Z,21.03
2018-12-30T18:42:12.392Z,21.03
2018-12-30T18:44:38.368Z,21.04
2018-12-30T18:47:08.187Z,21.08
2018-12-30T18:49:34.204Z,21.09
2018-12-30T18:52:00.212Z,21.09
2018-12-30T18:54:26.200Z,21.07
2018-12-30T18:56:52.990Z,21.08
2018-12-30T18:59:23.847Z,21.10
2018-12-30T19:01:49.913Z,21.10
2018-12-30T19:04:15.856Z,21.09
2018-12-30T19:06:42.028Z,21.08
2018-12-30T19:09:08.050Z,21.08
2018-12-30T19:11:34.106Z,21.08
2018-12-30T19:14:00.094Z,21.10
2018-12-30T19:16:26.167Z,21.10
2018-12-30T19:18:52.218Z,21.08
2018-12-30T19:21:18.210Z,21.08
2018-12-30T19:23:44.195Z,21.06
2018-12-30T19:26:14.233Z,21.07
2018-12-30T19:28:36.196Z,21.06
2018-12-30T19:31:02.159Z,21.06
2018-12-30T19:33:28.211Z,21.06
2018-12-30T19:35:54.219Z,21.05
2018-12-30T19:38:20.261Z,21.01
2018-12-30T19:40:46.310Z,21.05
2018-12-30T19:43:12.276Z,21.07
2018-12-30T19:45:38.293Z,21.08
2018-12-30T19:48:04.299Z,21.10
2018-12-30T19:50:30.277Z,21.08
2018-12-30T19:52:56.306Z,21.09
2018-12-30T19:55:22.293Z,21.09
2018-12-30T19:57:48.347Z,21.06
2018-12-30T20:00:14.315Z,21.14
2018-12-30T20:02:40.306Z,21.14
2018-12-30T20:05:06.352Z,21.13
2018-12-30T20:07:32.331Z,21.12
2018-12-30T20:09:58.325Z,21.16
2018-12-30T20:12:24.383Z,21.15
2018-12-30T20:14:50.362Z,21.14
2018-12-30T20:17:16.381Z,21.12
2018-12-30T20:19:42.415Z,21.13
2018-12-30T20:22:08.868Z,21.13
2018-12-30T20:24:38.083Z,21.12
2018-12-30T20:27:04.358Z,21.17
2018-12-30T20:29:36.247Z,21.15
2018-12-30T20:32:02.277Z,21.17
2018-12-30T20:34:28.264Z,21.16
2018-12-30T20:36:54.268Z,21.17
2018-12-30T20:39:20.298Z,21.18
2018-12-30T20:41:46.347Z,21.18
2018-12-30T20:44:13.233Z,21.19
2018-12-30T20:46:39.474Z,21.18
2018-12-30T20:49:05.434Z,21.20
2018-12-30T20:51:31.412Z,21.22
2018-12-30T20:53:57.430Z,21.21
2018-12-30T20:56:23.410Z,21.22
2018-12-30T20:58:49.421Z,21.21
2018-12-30T21:01:15.418Z,21.22
2018-12-30T21:03:41.406Z,21.22
2018-12-30T21:06:07.416Z,21.23
2018-12-30T21:08:33.474Z,21.23
2018-12-30T21:10:59.456Z,21.25
2018-12-30T21:13:25.440Z,21.25
2018-12-30T21:15:51.476Z,21.29
2018-12-30T21:18:17.453Z,21.26
2018-12-30T21:20:43.435Z,21.24
2018-12-30T21:23:09.450Z,21.26
2018-12-30T21:25:35.443Z,21.24
2018-12-30T21:28:01.424Z,21.26
2018-12-30T21:30:27.467Z,21.27
2018-12-30T21:32:53.433Z,21.26
2018-12-30T21:35:19.431Z,21.27
2018-12-30T21:37:45.441Z,21.27
2018-12-30T21:40:11.420Z,21.30
2018-12-30T21:42:43.747Z,21.27
2018-12-30T21:45:03.445Z,21.27
2018-12-30T21:47:29.416Z,21.28
2018-12-30T21:49:55.378Z,21.24
2018-12-30T21:52:21.418Z,21.24
2018-12-30T21:54:47.415Z,21.22
2018-12-30T21:57:13.394Z,21.21
2018-12-30T21:59:39.403Z,21.20
2018-12-30T22:02:05.392Z,21.20
2018-12-30T22:04:31.355Z,21.20
2018-12-30T22:06:57.389Z,21.19
2018-12-30T22:09:23.346Z,21.18
2018-12-30T22:11:49.367Z,21.18
2018-12-30T22:14:15.353Z,21.17
2018-12-30T22:16:41.338Z,21.17
2018-12-30T22:19:07.374Z,21.16
2018-12-30T22:21:33.343Z,21.16
2018-12-30T22:23:59.327Z,21.16
2018-12-30T22:26:25.340Z,21.15
2018-12-30T22:28:51.341Z,21.15
2018-12-30T22:31:17.327Z,21.14
2018-12-30T22:33:43.342Z,21.13
2018-12-30T22:36:09.347Z,21.13
2018-12-30T22:38:35.336Z,21.13
2018-12-30T22:41:01.358Z,21.11
2018-12-30T22:43:27.332Z,21.12
2018-12-30T22:45:53.362Z,21.10
2018-12-30T22:48:19.373Z,21.10
2018-12-30T22:50:45.376Z,21.10
2018-12-30T22:53:11.361Z,21.11
2018-12-30T22:55:37.391Z,21.10
2018-12-30T22:58:03.370Z,21.09
2018-12-30T23:00:29.392Z,21.09
2018-12-30T23:02:55.359Z,21.09
2018-12-30T23:05:21.360Z,21.08
2018-12-30T23:07:47.379Z,21.08
2018-12-30T23:10:13.360Z,21.08
2018-12-30T23:12:39.378Z,21.08
2018-12-30T23:15:05.404Z,21.07
2018-12-30T23:17:31.414Z,21.08
2018-12-30T23:19:57.434Z,21.06
2018-12-30T23:22:23.437Z,21.05
2018-12-30T23:24:49.430Z,21.06
2018-12-30T23:27:15.447Z,21.05
2018-12-30T23:29:41.451Z,21.04
2018-12-30T23:32:07.479Z,21.04
2018-12-30T23:34:33.499Z,21.04
2018-12-30T23:36:59.475Z,21.03
2018-12-30T23:39:25.490Z,21.04
2018-12-30T23:41:51.464Z,21.03
2018-12-30T23:44:17.474Z,21.04
2018-12-30T23:46:43.482Z,21.03
2018-12-30T23:49:09.451Z,21.03
2018-12-30T23:51:35.433Z,21.03
2018-12-30T23:54:01.472Z,21.03
2018-12-30T23:56:27.437Z,21.03
2018-12-30T23:58:53.470Z,21.03
